createdAt,value
2022-09-03T00:00:35.689Z,99522.66
2022-09-03T00:03:10.224Z,99524.22
2022-09-03T00:05:47.881Z,99510.06
2022-09-03T00:08:40.838Z,99516.56
2022-09-03T00:11:23.531Z,99520.84
2022-09-03T00:13:54.151Z,99529.31
2022-09-03T00:16:27.340Z,99528.97
2022-09-03T00:18:59.492Z,99522.06
2022-09-03T00:21:32.501Z,99519.28
2022-09-03T00:24:06.022Z,99526.28
2022-09-03T00:26:42.685Z,99525.31
2022-09-03T00:29:15.916Z,99522.97
2022-09-03T00:31:49.256Z,99520.22
2022-09-03T00:34:27.018Z,99520.25
2022-09-03T00:36:56.598Z,99512.13
2022-09-03T00:39:26.357Z,99524.84
2022-09-03T00:42:17.651Z,99514.59
2022-09-03T00:45:00.942Z,99523.31
2022-09-03T00:47:51.970Z,99521.13
2022-09-03T00:50:49.428Z,99515.53
2022-09-03T00:53:34.934Z,99531.41
2022-09-03T00:56:27.595Z,99525.00
2022-09-03T00:59:03.959Z,99524.91
2022-09-03T01:02:00.625Z,99524.38
2022-09-03T01:04:30.646Z,99524.63
2022-09-03T01:07:04.938Z,99528.34
2022-09-03T01:09:41.038Z,99529.09
2022-09-03T01:12:32.274Z,99520.34
2022-09-03T01:15:25.168Z,99527.19
2022-09-03T01:18:01.908Z,99539.34
2022-09-03T01:20:32.623Z,99537.84
2022-09-03T01:23:24.857Z,99543.41
2022-09-03T01:26:04.712Z,99550.13
2022-09-03T01:28:54.899Z,99549.56
2022-09-03T01:31:50.456Z,99556.41
2022-09-03T01:34:26.136Z,99541.91
2022-09-03T01:37:00.351Z,99542.63
2022-09-03T01:39:39.766Z,99541.50
2022-09-03T01:42:28.659Z,99545.31
2022-09-03T01:45:16.439Z,99534.66
2022-09-03T01:48:20.561Z,99534.31
2022-09-03T01:51:00.386Z,99531.63
2022-09-03T01:54:05.120Z,99539.94
2022-09-03T01:57:35.335Z,99526.50
2022-09-03T02:00:16.341Z,99534.53
2022-09-03T02:02:48.225Z,99529.69
2022-09-03T02:05:17.095Z,99528.41
2022-09-03T02:07:47.446Z,99531.22
2022-09-03T02:10:17.703Z,99535.69
2022-09-03T02:12:52.024Z,99530.69
2022-09-03T02:15:22.641Z,99540.13
2022-09-03T02:17:54.342Z,99535.53
2022-09-03T02:20:24.377Z,99541.16
2022-09-03T02:22:54.388Z,99547.03
2022-09-03T02:25:24.607Z,99536.50
2022-09-03T02:27:54.593Z,99545.72
2022-09-03T02:30:21.575Z,99546.19
2022-09-03T02:32:48.628Z,99543.72
2022-09-03T02:35:15.888Z,99539.84
2022-09-03T02:37:43.467Z,99539.56
2022-09-03T02:40:13.572Z,99525.78
2022-09-03T02:42:40.879Z,99533.22
2022-09-03T02:45:20.960Z,99530.59
2022-09-03T02:47:52.648Z,99540.56
2022-09-03T02:50:19.853Z,99544.94
2022-09-03T02:52:46.930Z,99545.97
2022-09-03T02:55:16.666Z,99545.88
2022-09-03T02:57:47.282Z,99541.09
2022-09-03T03:00:15.024Z,99544.94
2022-09-03T03:02:43.295Z,99532.28
2022-09-03T03:05:18.686Z,99521.38
2022-09-03T03:07:45.844Z,99534.56
2022-09-03T03:10:12.979Z,99531.28
2022-09-03T03:12:40.144Z,99534.25
2022-09-03T03:15:07.525Z,99543.53
2022-09-03T03:17:34.489Z,99526.16
2022-09-03T03:20:01.548Z,99527.53
2022-09-03T03:22:28.685Z,99529.84
2022-09-03T03:24:57.745Z,99530.91
2022-09-03T03:27:24.877Z,99527.22
2022-09-03T03:29:52.382Z,99530.31
2022-09-03T03:32:19.364Z,99533.88
2022-09-03T03:34:46.355Z,99534.16
2022-09-03T03:37:15.763Z,99527.16
2022-09-03T03:39:42.901Z,99528.47
2022-09-03T03:42:12.128Z,99527.09
2022-09-03T03:44:39.245Z,99522.50
2022-09-03T03:47:06.317Z,99523.63
2022-09-03T03:49:33.200Z,99531.31
2022-09-03T03:52:00.435Z,99525.31
2022-09-03T03:54:27.443Z,99523.41
2022-09-03T03:56:55.713Z,99533.09
2022-09-03T03:59:23.334Z,99540.69
2022-09-03T04:01:55.001Z,99540.19
2022-09-03T04:04:21.988Z,99547.84
2022-09-03T04:06:49.090Z,99536.75
2022-09-03T04:09:16.145Z,99549.84
2022-09-03T04:11:43.172Z,99547.53
2022-09-03T04:14:10.398Z,99550.16
2022-09-03T04:16:37.310Z,99547.50
2022-09-03T04:19:04.958Z,99550.81
2022-09-03T04:21:32.279Z,99548.81
2022-09-03T04:23:59.344Z,99549.69
2022-09-03T04:26:32.216Z,99552.41
2022-09-03T04:29:05.359Z,99560.25
2022-09-03T04:31:33.585Z,99547.81
2022-09-03T04:34:00.928Z,99545.25
2022-09-03T04:36:30.162Z,99545.16
2022-09-03T04:38:59.900Z,99551.28
2022-09-03T04:41:29.429Z,99557.19
2022-09-03T04:43:58.187Z,99554.63
2022-09-03T04:46:30.213Z,99554.19
2022-09-03T04:48:58.053Z,99550.88
2022-09-03T04:51:27.607Z,99546.97
2022-09-03T04:53:57.390Z,99553.13
2022-09-03T04:56:30.935Z,99556.13
2022-09-03T04:59:09.400Z,99562.31
2022-09-03T05:01:40.934Z,99567.59
2022-09-03T05:04:08.525Z,99568.38
2022-09-03T05:06:37.291Z,99571.25
2022-09-03T05:09:05.766Z,99565.19
2022-09-03T05:11:32.908Z,99570.53
2022-09-03T05:14:03.153Z,99566.91
2022-09-03T05:16:35.251Z,99562.53
2022-09-03T05:19:06.174Z,99567.53
2022-09-03T05:21:36.801Z,99566.13
2022-09-03T05:24:04.896Z,99567.63
2022-09-03T05:26:38.924Z,99566.44
2022-09-03T05:29:10.316Z,99572.16
2022-09-03T05:31:39.726Z,99578.00
2022-09-03T05:34:08.107Z,99574.22
2022-09-03T05:36:37.856Z,99576.97
2022-09-03T05:39:05.911Z,99566.19
2022-09-03T05:41:34.238Z,99566.00
2022-09-03T05:44:02.263Z,99565.75
2022-09-03T05:46:33.479Z,99574.03
2022-09-03T05:49:02.586Z,99565.63
2022-09-03T05:51:30.944Z,99571.78
2022-09-03T05:53:58.793Z,99573.25
2022-09-03T05:56:28.304Z,99560.81
2022-09-03T05:58:57.986Z,99564.28
2022-09-03T06:01:29.080Z,99576.75
2022-09-03T06:03:59.194Z,99571.16
2022-09-03T06:06:27.694Z,99568.56
2022-09-03T06:08:59.848Z,99575.44
2022-09-03T06:11:30.795Z,99573.22
2022-09-03T06:14:01.448Z,99583.94
2022-09-03T06:16:31.528Z,99581.38
2022-09-03T06:19:00.798Z,99574.69
2022-09-03T06:21:28.937Z,99574.69
2022-09-03T06:23:58.488Z,99569.66
2022-09-03T06:26:30.650Z,99568.75
2022-09-03T06:28:58.336Z,99569.72
2022-09-03T06:31:25.940Z,99567.16
2022-09-03T06:33:54.735Z,99574.38
2022-09-03T06:36:26.696Z,99582.22
2022-09-03T06:38:56.061Z,99577.22
2022-09-03T06:41:26.538Z,99572.41
2022-09-03T06:44:05.738Z,99577.97
2022-09-03T06:46:35.786Z,99583.31
2022-09-03T06:49:02.814Z,99581.97
2022-09-03T06:51:31.425Z,99581.56
2022-09-03T06:54:03.980Z,99601.25
2022-09-03T06:56:37.419Z,99597.13
2022-09-03T06:59:09.898Z,99607.03
2022-09-03T07:01:44.301Z,99608.25
2022-09-03T07:04:14.907Z,99601.53
2022-09-03T07:06:43.221Z,99605.69
2022-09-03T07:09:12.549Z,99608.09
2022-09-03T07:11:47.840Z,99613.25
2022-09-03T07:14:18.130Z,99623.81
2022-09-03T07:16:46.350Z,99627.69
2022-09-03T07:19:13.718Z,99624.91
2022-09-03T07:21:45.295Z,99625.75
2022-09-03T07:24:15.417Z,99619.66
2022-09-03T07:26:48.865Z,99619.63
2022-09-03T07:29:20.450Z,99619.28
2022-09-03T07:31:48.705Z,99613.03
2022-09-03T07:34:16.918Z,99623.00
2022-09-03T07:36:48.664Z,99619.63
2022-09-03T07:39:17.938Z,99622.38
2022-09-03T07:41:46.966Z,99627.84
2022-09-03T07:44:16.394Z,99625.03
2022-09-03T07:46:45.739Z,99626.53
2022-09-03T07:49:13.483Z,99631.47
2022-09-03T07:51:42.706Z,99624.94
2022-09-03T07:54:11.803Z,99629.66
2022-09-03T07:56:40.460Z,99624.09
2022-09-03T07:59:08.225Z,99621.78
2022-09-03T08:01:41.347Z,99621.47
2022-09-03T08:04:10.116Z,99625.00
2022-09-03T08:06:38.294Z,99632.13
2022-09-03T08:09:08.466Z,99620.38
2022-09-03T08:11:41.030Z,99619.16
2022-09-03T08:14:10.590Z,99615.91
2022-09-03T08:16:43.990Z,99617.28
2022-09-03T08:19:12.164Z,99625.44
2022-09-03T08:21:41.926Z,99617.03
2022-09-03T08:24:11.186Z,99626.16
2022-09-03T08:26:46.213Z,99625.38
2022-09-03T08:29:16.443Z,99624.53
2022-09-03T08:31:45.860Z,99626.16
2022-09-03T08:34:14.996Z,99627.63
2022-09-03T08:36:42.460Z,99628.13
2022-09-03T08:39:13.379Z,99625.44
2022-09-03T08:41:58.640Z,99613.00
2022-09-03T08:44:31.780Z,99615.25
2022-09-03T08:47:29.163Z,99606.16
2022-09-03T08:50:24.320Z,99603.59
2022-09-03T08:52:53.594Z,99598.31
2022-09-03T08:55:33.543Z,99596.31
2022-09-03T08:58:10.163Z,99605.81
2022-09-03T09:00:40.711Z,99590.28
2022-09-03T09:03:16.603Z,99604.84
2022-09-03T09:06:05.869Z,99603.69
2022-09-03T09:09:11.730Z,99595.88
2022-09-03T09:11:51.633Z,99602.50
2022-09-03T09:14:42.738Z,99596.41
2022-09-03T09:17:39.208Z,99591.66
2022-09-03T09:20:12.233Z,99608.19
2022-09-03T09:22:47.213Z,99601.56
2022-09-03T09:25:23.325Z,99590.56
2022-09-03T09:28:02.807Z,99575.56
2022-09-03T09:30:32.514Z,99583.25
2022-09-03T09:33:00.867Z,99572.84
2022-09-03T09:35:27.956Z,99580.16
2022-09-03T09:38:00.381Z,99578.88
2022-09-03T09:40:35.216Z,99583.38
2022-09-03T09:43:08.230Z,99579.16
2022-09-03T09:45:35.465Z,99582.66
2022-09-03T09:48:07.285Z,99580.19
2022-09-03T09:50:39.048Z,99581.66
2022-09-03T09:53:18.024Z,99575.22
2022-09-03T09:55:58.086Z,99574.50
2022-09-03T09:58:28.427Z,99574.47
2022-09-03T10:01:15.234Z,99562.41
2022-09-03T10:03:55.460Z,99568.28
2022-09-03T10:06:50.771Z,99567.72
2022-09-03T10:09:19.609Z,99551.84
2022-09-03T10:11:52.330Z,99552.56
2022-09-03T10:14:35.485Z,99553.28
2022-09-03T10:17:10.825Z,99559.75
2022-09-03T10:20:16.374Z,99558.34
2022-09-03T10:22:56.820Z,99567.44
2022-09-03T10:25:39.357Z,99559.22
2022-09-03T10:28:13.194Z,99577.97
2022-09-03T10:30:49.960Z,99561.78
2022-09-03T10:33:30.856Z,99560.66
2022-09-03T10:36:17.300Z,99563.25
2022-09-03T10:38:51.710Z,99561.31
2022-09-03T10:41:34.273Z,99551.38
2022-09-03T10:44:01.218Z,99556.34
2022-09-03T10:46:40.394Z,99554.78
2022-09-03T10:49:43.525Z,99547.09
2022-09-03T10:52:34.054Z,99550.00
2022-09-03T10:55:04.011Z,99542.13
2022-09-03T10:57:51.198Z,99552.13
2022-09-03T11:00:19.694Z,99547.72
2022-09-03T11:02:58.968Z,99555.22
2022-09-03T11:05:38.684Z,99540.69
2022-09-03T11:08:17.141Z,99536.97
2022-09-03T11:10:50.364Z,99539.53
2022-09-03T11:13:25.113Z,99534.06
2022-09-03T11:15:54.214Z,99534.06
2022-09-03T11:18:45.822Z,99530.16
2022-09-03T11:21:15.522Z,99539.44
2022-09-03T11:23:46.974Z,99532.06
2022-09-03T11:26:18.733Z,99531.75
2022-09-03T11:29:02.377Z,99526.00
2022-09-03T11:31:59.247Z,99529.78
2022-09-03T11:34:35.765Z,99527.69
2022-09-03T11:37:22.363Z,99520.47
2022-09-03T11:40:19.460Z,99500.63
2022-09-03T11:42:46.667Z,99521.47
2022-09-03T11:45:20.319Z,99516.63
2022-09-03T11:47:47.944Z,99518.09
2022-09-03T11:50:27.489Z,99520.88
2022-09-03T11:53:08.549Z,99521.69
2022-09-03T11:55:55.776Z,99519.19
2022-09-03T11:58:43.029Z,99520.75
2022-09-03T12:01:18.267Z,99521.66
2022-09-03T12:03:53.137Z,99517.53
2022-09-03T12:06:32.519Z,99510.47
2022-09-03T12:09:13.870Z,99516.91
2022-09-03T12:12:14.036Z,99511.56
2022-09-03T12:14:48.090Z,99519.06
2022-09-03T12:17:27.581Z,99523.00
2022-09-03T12:19:58.300Z,99516.25
2022-09-03T12:22:31.273Z,99517.84
2022-09-03T12:25:17.221Z,99509.97
2022-09-03T12:27:46.590Z,99513.28
2022-09-03T12:30:21.544Z,99507.13
2022-09-03T12:32:49.609Z,99509.47
2022-09-03T12:38:18.501Z,99501.84
2022-09-03T12:43:39.585Z,99498.81
2022-09-03T12:46:14.786Z,99502.06
2022-09-03T12:52:06.216Z,99496.06
2022-09-03T12:54:50.463Z,99495.75
2022-09-03T12:57:22.960Z,99493.91
2022-09-03T12:59:54.759Z,99493.34
2022-09-03T13:02:28.201Z,99488.94
2022-09-03T13:04:56.293Z,99486.41
2022-09-03T13:07:34.511Z,99482.81
2022-09-03T13:10:08.354Z,99487.84
2022-09-03T13:12:44.765Z,99487.88
2022-09-03T13:15:19.972Z,99481.50
2022-09-03T13:17:49.926Z,99476.66
2022-09-03T13:20:40.515Z,99479.84
2022-09-03T13:23:32.090Z,99473.69
2022-09-03T13:26:07.043Z,99475.56
2022-09-03T13:28:46.649Z,99470.41
2022-09-03T13:31:34.393Z,99476.75
2022-09-03T13:34:09.940Z,99469.50
2022-09-03T13:36:49.335Z,99471.81
2022-09-03T13:39:24.397Z,99464.69
2022-09-03T13:41:55.237Z,99463.84
2022-09-03T13:44:50.378Z,99461.53
2022-09-03T13:47:34.434Z,99456.19
2022-09-03T13:50:24.716Z,99452.72
2022-09-03T13:53:00.622Z,99459.63
2022-09-03T13:55:38.016Z,99453.66
2022-09-03T13:58:27.678Z,99445.75
2022-09-03T14:00:58.155Z,99452.97
2022-09-03T14:03:36.274Z,99441.19
2022-09-03T14:06:27.993Z,99448.22
2022-09-03T14:09:16.937Z,99448.66
2022-09-03T14:12:10.129Z,99439.53
2022-09-03T14:14:38.809Z,99433.63
2022-09-03T14:17:33.819Z,99443.72
2022-09-03T14:20:11.157Z,99443.13
2022-09-03T14:22:59.614Z,99440.47
2022-09-03T14:25:28.199Z,99443.38
2022-09-03T14:27:56.400Z,99433.19
2022-09-03T14:30:49.601Z,99434.41
2022-09-03T14:33:47.712Z,99433.34
2022-09-03T14:36:42.770Z,99438.19
2022-09-03T14:39:52.339Z,99448.97
2022-09-03T14:42:42.854Z,99437.41
2022-09-03T14:45:35.210Z,99431.81
2022-09-03T14:48:44.426Z,99440.97
2022-09-03T14:51:36.079Z,99427.41
2022-09-03T14:54:24.860Z,99428.16
2022-09-03T14:57:04.501Z,99423.91
2022-09-03T14:59:47.425Z,99436.63
2022-09-03T15:02:17.536Z,99437.41
2022-09-03T15:04:57.345Z,99441.41
2022-09-03T15:07:34.124Z,99438.34
2022-09-03T15:10:36.788Z,99441.00
2022-09-03T15:13:27.066Z,99440.91
2022-09-03T15:16:31.695Z,99440.69
2022-09-03T15:19:05.011Z,99432.72
2022-09-03T15:21:53.417Z,99430.34
2022-09-03T15:24:26.888Z,99429.88
2022-09-03T15:27:07.825Z,99430.22
2022-09-03T15:30:05.346Z,99420.34
2022-09-03T15:33:09.950Z,99432.84
2022-09-03T15:36:08.924Z,99427.41
2022-09-03T15:38:57.210Z,99424.13
2022-09-03T15:41:40.327Z,99429.13
2022-09-03T15:44:19.005Z,99434.38
2022-09-03T15:46:56.840Z,99414.09
2022-09-03T15:49:29.661Z,99423.44
2022-09-03T15:52:45.899Z,99428.25
2022-09-03T15:55:30.117Z,99416.41
2022-09-03T15:58:29.515Z,99420.41
2022-09-03T16:01:41.750Z,99418.31
2022-09-03T16:04:50.792Z,99424.38
2022-09-03T16:07:42.418Z,99430.69
2022-09-03T16:10:24.678Z,99440.97
2022-09-03T16:13:24.552Z,99432.13
2022-09-03T16:16:02.276Z,99437.47
2022-09-03T16:18:58.683Z,99442.09
2022-09-03T16:21:32.678Z,99433.47
2022-09-03T16:24:03.173Z,99447.09
2022-09-03T16:26:41.323Z,99447.69
2022-09-03T16:29:13.190Z,99448.00
2022-09-03T16:31:43.383Z,99450.97
2022-09-03T16:34:22.780Z,99442.97
2022-09-03T16:37:08.192Z,99440.84
2022-09-03T16:40:13.562Z,99437.78
2022-09-03T16:42:47.852Z,99438.03
2022-09-03T16:45:19.890Z,99442.41
2022-09-03T16:48:12.226Z,99441.50
2022-09-03T16:51:07.491Z,99440.75
2022-09-03T16:54:09.217Z,99433.63
2022-09-03T16:56:57.907Z,99434.28
2022-09-03T16:59:46.349Z,99436.72
2022-09-03T17:02:54.514Z,99430.13
2022-09-03T17:05:28.709Z,99430.72
2022-09-03T17:08:07.664Z,99437.00
2022-09-03T17:10:45.991Z,99443.66
2022-09-03T17:13:57.562Z,99441.06
2022-09-03T17:17:01.010Z,99449.31
2022-09-03T17:19:27.948Z,99451.97
2022-09-03T17:22:15.619Z,99446.56
2022-09-03T17:25:01.752Z,99451.69
2022-09-03T17:27:45.243Z,99455.13
2022-09-03T17:30:40.746Z,99459.53
2022-09-03T17:33:45.665Z,99457.41
2022-09-03T17:36:48.906Z,99459.75
2022-09-03T17:39:32.258Z,99449.88
2022-09-03T17:42:05.100Z,99443.50
2022-09-03T17:44:47.036Z,99446.94
2022-09-03T17:47:41.884Z,99445.56
2022-09-03T17:50:12.190Z,99454.78
2022-09-03T17:52:45.091Z,99456.16
2022-09-03T17:55:24.381Z,99457.22
2022-09-03T17:57:59.891Z,99458.41
2022-09-03T18:00:38.283Z,99454.25
2022-09-03T18:03:17.501Z,99460.50
2022-09-03T18:05:59.860Z,99462.44
2022-09-03T18:08:36.411Z,99465.00
2022-09-03T18:11:06.631Z,99463.00
2022-09-03T18:13:55.588Z,99461.53
2022-09-03T18:16:33.222Z,99462.34
2022-09-03T18:19:19.099Z,99468.78
2022-09-03T18:22:06.257Z,99471.59
2022-09-03T18:25:07.987Z,99469.25
2022-09-03T18:28:13.427Z,99476.38
2022-09-03T18:30:59.399Z,99482.88
2022-09-03T18:33:45.820Z,99481.28
2022-09-03T18:36:34.113Z,99480.75
2022-09-03T18:39:31.427Z,99481.69
2022-09-03T18:42:54.748Z,99489.25
2022-09-03T18:46:31.154Z,99478.38
2022-09-03T18:48:59.534Z,99486.84
2022-09-03T18:52:18.092Z,99496.13
2022-09-03T18:55:29.012Z,99501.31
2022-09-03T18:58:27.056Z,99498.13
2022-09-03T19:01:25.248Z,99492.41
2022-09-03T19:04:20.178Z,99497.75
2022-09-03T19:07:26.782Z,99494.78
2022-09-03T19:10:39.066Z,99492.56
2022-09-03T19:13:31.248Z,99493.31
2022-09-03T19:16:53.612Z,99479.53
2022-09-03T19:19:45.542Z,99471.56
2022-09-03T19:22:53.414Z,99481.19
2022-09-03T19:25:39.830Z,99484.13
2022-09-03T19:28:40.696Z,99494.22
2022-09-03T19:31:29.797Z,99488.25
2022-09-03T19:34:33.438Z,99499.41
2022-09-03T19:37:37.595Z,99495.38
2022-09-03T19:41:01.088Z,99498.34
2022-09-03T19:44:25.985Z,99501.78
2022-09-03T19:47:16.849Z,99512.63
2022-09-03T19:50:36.565Z,99509.66
2022-09-03T19:53:29.335Z,99507.41
2022-09-03T19:56:17.735Z,99505.97
2022-09-03T19:59:14.832Z,99499.44
2022-09-03T20:02:01.119Z,99508.03
2022-09-03T20:04:54.073Z,99515.00
2022-09-03T20:07:43.031Z,99516.47
2022-09-03T20:10:25.508Z,99522.69
2022-09-03T20:13:15.445Z,99530.09
2022-09-03T20:15:53.859Z,99524.31
2022-09-03T20:18:27.259Z,99527.88
2022-09-03T20:21:44.149Z,99534.56
2022-09-03T20:24:44.362Z,99539.28
2022-09-03T20:27:50.799Z,99528.63
2022-09-03T20:30:22.841Z,99533.06
2022-09-03T20:32:55.986Z,99530.09
2022-09-03T20:35:45.261Z,99536.16
2022-09-03T20:38:36.777Z,99539.56
2022-09-03T20:41:12.070Z,99544.91
2022-09-03T20:44:01.294Z,99553.22
2022-09-03T20:46:28.380Z,99548.91
2022-09-03T20:49:08.993Z,99550.97
2022-09-03T20:51:54.780Z,99549.63
2022-09-03T20:54:28.784Z,99545.22
2022-09-03T20:57:05.825Z,99553.50
2022-09-03T21:00:07.660Z,99553.03
2022-09-03T21:02:56.959Z,99550.22
2022-09-03T21:05:34.702Z,99546.25
2022-09-03T21:08:14.019Z,99553.34
2022-09-03T21:10:53.275Z,99553.66
2022-09-03T21:13:39.170Z,99549.63
2022-09-03T21:16:45.001Z,99545.34
2022-09-03T21:19:43.699Z,99552.63
2022-09-03T21:22:28.740Z,99547.16
2022-09-03T21:25:07.137Z,99553.66
2022-09-03T21:27:41.637Z,99553.50
2022-09-03T21:30:13.194Z,99557.03
2022-09-03T21:32:55.797Z,99562.06
2022-09-03T21:35:29.155Z,99558.81
2022-09-03T21:38:06.591Z,99559.53
2022-09-03T21:40:37.773Z,99571.06
2022-09-03T21:43:17.751Z,99568.25
2022-09-03T21:45:50.365Z,99574.31
2022-09-03T21:48:25.528Z,99577.44
2022-09-03T21:51:00.373Z,99583.50
2022-09-03T21:53:35.994Z,99592.50
2022-09-03T21:56:16.047Z,99594.00
2022-09-03T21:59:19.937Z,99597.69
2022-09-03T22:02:01.945Z,99603.34
2022-09-03T22:04:29.524Z,99615.03
2022-09-03T22:07:07.702Z,99616.38
2022-09-03T22:09:45.739Z,99618.25
2022-09-03T22:12:16.785Z,99617.09
2022-09-03T22:14:48.519Z,99622.53
2022-09-03T22:17:48.536Z,99617.50
2022-09-03T22:20:20.106Z,99615.88
2022-09-03T22:22:57.804Z,99616.63
2022-09-03T22:25:43.951Z,99629.03
2022-09-03T22:28:22.139Z,99624.59
2022-09-03T22:31:07.217Z,99619.41
2022-09-03T22:33:56.230Z,99628.28
2022-09-03T22:36:40.588Z,99620.44
2022-09-03T22:39:31.726Z,99611.81
2022-09-03T22:42:11.791Z,99623.81
2022-09-03T22:44:57.290Z,99625.13
2022-09-03T22:47:31.982Z,99623.47
2022-09-03T22:50:35.815Z,99626.13
2022-09-03T22:53:11.669Z,99620.94
2022-09-03T22:55:45.638Z,99633.53
2022-09-03T22:58:28.842Z,99632.59
2022-09-03T23:01:10.764Z,99635.41
2022-09-03T23:03:45.235Z,99637.66
2022-09-03T23:06:36.508Z,99637.50
2022-09-03T23:09:21.373Z,99642.84
2022-09-03T23:11:54.177Z,99643.47
2022-09-03T23:14:28.504Z,99634.47
2022-09-03T23:17:12.428Z,99638.03
2022-09-03T23:19:47.044Z,99641.41
2022-09-03T23:22:35.298Z,99643.47
2022-09-03T23:25:18.676Z,99650.44
2022-09-03T23:27:55.486Z,99655.72
2022-09-03T23:30:22.758Z,99662.38
2022-09-03T23:32:55.128Z,99662.03
2022-09-03T23:35:29.963Z,99658.19
2022-09-03T23:38:09.154Z,99666.28
2022-09-03T23:40:57.112Z,99668.06
2022-09-03T23:43:27.408Z,99655.00
2022-09-03T23:46:08.133Z,99646.28
2022-09-03T23:49:13.015Z,99644.47
2022-09-03T23:52:09.413Z,99636.91
2022-09-03T23:55:22.877Z,99636.22
2022-09-03T23:58:11.011Z,99657.22
